Terminal Aerodrome Forecast
Issued by NWS

Home | Current Version | Previous Version | Text Only | Print | Product List | Glossary On
Versions: 1 2 3 4 5 6 7 8 9 10 11 12 13 14 15 16
000
FTUS44 KHGX 210524
TAFCXO
TAF
KCXO 210524Z 2106/2206 VRB03KT P6SM BKN090
     FM210800 00000KT 5SM BR SCT007 BKN050
      TEMPO 2110/2113 2SM BR SCT003 BKN006
     FM211400 18008KT P6SM BKN015 BKN050
     FM211800 18009KT P6SM SCT025 SCT050
     FM212100 17009KT P6SM FEW045 SCT150
     FM220200 VRB03KT P6SM FEW025 SCT140=

USA.gov is the U.S. government's official web portal to all federal, state and local government web resources and services.